Time;durP1;ratioP1;P1;durP2;ratioP2;P2;SDS_P1;SDS_P2;PMS_P1;PMS_P2;Temp;Humidity;BMP_temperature;BMP_pressure;BME280_temperature;BME280_humidity;BME280_pressure;Samples;Min_cycle;Max_cycle;Signal;HPM_P1;HPM_P2
2021/07/07 00:00:10;;;;;;;1.90;1.43;;;20.00;47.70;;;;;;5029849;28;20444;-77
2021/07/07 00:02:38;;;;;;;1.30;1.17;;;20.00;99.90;;;;;;5030862;28;20811;-78
2021/07/07 00:05:08;;;;;;;2.37;1.10;;;20.00;1.00;;;;;;5029376;28;20445;-78
2021/07/07 00:07:37;;;;;;;1.33;1.23;;;19.90;99.90;;;;;;5030114;28;20444;-78
2021/07/07 00:10:07;;;;;;;1.40;1.30;;;19.90;1.00;;;;;;5028487;28;20484;-76
2021/07/07 00:12:35;;;;;;;1.47;1.10;;;19.90;99.90;;;;;;5028382;28;21009;-77
2021/07/07 00:15:06;;;;;;;1.30;1.20;;;19.90;47.50;;;;;;5028549;28;21321;-78
2021/07/07 00:17:35;;;;;;;1.57;1.27;;;19.90;99.90;;;;;;5028694;28;20507;-78
2021/07/07 00:20:03;;;;;;;1.30;1.13;;;19.90;1.00;;;;;;5029870;28;20446;-79
2021/07/07 00:22:32;;;;;;;1.50;1.33;;;20.00;99.90;;;;;;5029852;28;20941;-77
2021/07/07 00:25:00;;;;;;;1.80;1.07;;;19.90;1.00;;;;;;5031279;28;20966;-77
2021/07/07 00:27:28;;;;;;;1.27;1.20;;;19.90;1.00;;;;;;5028475;28;20531;-78
2021/07/07 00:29:56;;;;;;;1.60;1.50;;;19.90;1.00;;;;;;5029894;28;20534;-80
2021/07/07 00:32:26;;;;;;;1.50;1.40;;;19.90;1.00;;;;;;5026973;28;20472;-77
2021/07/07 00:34:54;;;;;;;1.67;1.57;;;19.90;99.90;;;;;;5030435;28;20468;-78
2021/07/07 00:37:22;;;;;;;1.37;1.27;;;19.90;99.90;;;;;;5029171;28;20451;-79
2021/07/07 00:39:51;;;;;;;1.53;1.40;;;19.90;99.90;;;;;;5030895;28;20507;-78
2021/07/07 00:42:19;;;;;;;1.50;1.40;;;19.90;1.00;;;;;;5024395;28;20494;-79
2021/07/07 00:44:47;;;;;;;1.37;1.27;;;19.90;99.90;;;;;;5029431;28;20494;-79
2021/07/07 00:47:15;;;;;;;1.50;1.40;;;19.80;1.00;;;;;;5027852;28;20451;-78
2021/07/07 00:49:44;;;;;;;1.60;1.30;;;19.80;1.00;;;;;;5030261;28;20476;-78
2021/07/07 00:52:13;;;;;;;1.47;1.30;;;19.80;17.30;;;;;;5027992;28;20514;-79
2021/07/07 00:54:41;;;;;;;2.20;1.30;;;19.80;99.90;;;;;;5029923;28;20476;-80
2021/07/07 00:57:11;;;;;;;1.90;1.43;;;19.80;1.00;;;;;;5026720;28;20490;-78
2021/07/07 00:59:42;;;;;;;1.70;1.60;;;19.80;12.20;;;;;;5029181;28;20471;-78
2021/07/07 01:02:11;;;;;;;1.80;1.70;;;19.80;93.20;;;;;;5025167;28;20503;-79
2021/07/07 01:04:39;;;;;;;1.50;1.40;;;19.90;1.00;;;;;;5028629;28;20898;-79
2021/07/07 01:07:09;;;;;;;1.73;1.63;;;19.90;1.00;;;;;;5030351;28;20445;-78
2021/07/07 01:09:37;;;;;;;1.70;1.60;;;19.90;1.00;;;;;;5027947;28;21270;-77
2021/07/07 01:12:07;;;;;;;2.10;1.53;;;19.90;1.00;;;;;;5025774;28;20448;-77
2021/07/07 01:14:35;;;;;;;1.70;1.40;;;19.90;1.00;;;;;;5025032;28;20514;-77
2021/07/07 01:17:04;;;;;;;4.70;2.07;;;19.90;1.00;;;;;;5024366;28;20551;-78
2021/07/07 01:19:33;;;;;;;2.10;1.90;;;19.90;1.00;;;;;;5027423;28;20518;-78
2021/07/07 01:22:02;;;;;;;2.90;2.17;;;19.90;1.00;;;;;;5025257;28;20444;-78
2021/07/07 01:24:30;;;;;;;4.33;2.20;;;19.80;99.90;;;;;;5028119;28;20463;-79
2021/07/07 01:26:58;;;;;;;2.07;1.97;;;19.80;99.90;;;;;;5045838;28;20453;-79
2021/07/07 01:29:26;;;;;;;3.83;1.97;;;19.80;99.90;;;;;;5028647;28;20463;-78
2021/07/07 01:31:55;;;;;;;3.80;1.97;;;19.80;99.90;;;;;;5025401;28;20472;-78
2021/07/07 01:34:23;;;;;;;1.90;1.80;;;19.70;99.90;;;;;;5027230;28;20476;-79
2021/07/07 01:36:51;;;;;;;2.17;1.97;;;19.80;95.70;;;;;;5027345;28;20946;-78
2021/07/07 01:39:21;;;;;;;1.93;1.80;;;19.70;99.90;;;;;;5028804;28;20841;-78
2021/07/07 01:41:49;;;;;;;1.57;1.30;;;19.70;99.90;;;;;;5026819;28;20509;-78
2021/07/07 01:44:17;;;;;;;2.07;1.97;;;19.70;99.90;;;;;;5027082;28;20546;-78
2021/07/07 01:46:45;;;;;;;1.90;1.80;;;19.70;99.90;;;;;;5025629;28;20932;-78
2021/07/07 01:49:14;;;;;;;2.80;2.10;;;19.70;82.90;;;;;;5026887;28;20978;-79
2021/07/07 01:51:42;;;;;;;2.43;2.23;;;19.60;99.90;;;;;;5026271;28;20877;-78
2021/07/07 01:54:10;;;;;;;1.87;1.77;;;19.60;99.90;;;;;;5023233;28;20482;-79
2021/07/07 01:56:40;;;;;;;2.70;2.20;;;19.70;99.90;;;;;;5021818;28;20460;-78
2021/07/07 01:59:08;;;;;;;4.73;1.80;;;19.80;99.90;;;;;;5025885;28;20460;-79
2021/07/07 02:01:36;;;;;;;2.10;2.00;;;19.80;99.90;;;;;;5026496;28;20955;-77
2021/07/07 02:04:04;;;;;;;1.90;1.80;;;19.70;99.90;;;;;;5026100;28;20484;-77
2021/07/07 02:06:32;;;;;;;2.33;1.90;;;19.70;1.00;;;;;;5025540;28;20456;-78
2021/07/07 02:09:01;;;;;;;2.03;1.73;;;19.70;99.90;;;;;;5026746;28;20522;-77
2021/07/07 02:11:29;;;;;;;2.00;1.57;;;19.80;99.90;;;;;;5027475;28;20487;-77
2021/07/07 02:13:58;;;;;;;2.60;1.57;;;19.70;1.00;;;;;;5027518;28;20484;-79
2021/07/07 02:16:26;;;;;;;1.60;1.50;;;19.60;1.00;;;;;;5026904;28;20518;-77
2021/07/07 02:18:55;;;;;;;1.40;1.30;;;19.60;1.00;;;;;;5025394;28;20451;-77
2021/07/07 02:21:23;;;;;;;1.50;1.40;;;19.60;1.00;;;;;;5026857;28;20470;-78
2021/07/07 02:23:51;;;;;;;1.30;1.20;;;19.70;1.00;;;;;;5026422;28;20564;-77
2021/07/07 02:26:19;;;;;;;1.00;1.00;;;19.60;1.00;;;;;;5027895;28;20455;-78
2021/07/07 02:28:47;;;;;;;1.60;1.23;;;19.60;99.90;;;;;;5027911;28;20452;-78
2021/07/07 02:31:17;;;;;;;1.20;1.10;;;19.60;1.00;;;;;;5026058;28;20476;-78
2021/07/07 02:33:45;;;;;;;1.30;1.20;;;19.60;1.00;;;;;;5013384;28;20568;-76
2021/07/07 02:36:13;;;;;;;1.13;1.03;;;19.60;1.00;;;;;;5026450;28;20460;-77
2021/07/07 02:38:41;;;;;;;0.97;0.90;;;19.70;99.90;;;;;;5026297;28;20443;-78
2021/07/07 02:41:10;;;;;;;1.20;0.93;;;19.70;99.90;;;;;;5026442;28;20921;-79
2021/07/07 02:43:38;;;;;;;1.07;1.00;;;19.70;1.00;;;;;;5026285;28;20472;-78
2021/07/07 02:46:06;;;;;;;1.20;1.10;;;19.80;1.00;;;;;;5026293;28;20455;-78
2021/07/07 02:48:36;;;;;;;1.47;1.03;;;19.70;1.00;;;;;;5026273;28;20456;-79
2021/07/07 02:51:04;;;;;;;1.30;1.00;;;19.70;99.90;;;;;;5025628;28;20485;-76
2021/07/07 02:53:32;;;;;;;1.27;1.00;;;19.70;99.90;;;;;;5024291;28;20562;-77
2021/07/07 02:56:00;;;;;;;2.53;1.20;;;19.70;99.90;;;;;;5026015;28;20971;-78
2021/07/07 02:58:28;;;;;;;1.30;1.20;;;19.70;99.90;;;;;;5024467;28;20453;-78
2021/07/07 03:00:56;;;;;;;1.23;1.13;;;19.70;99.90;;;;;;5024174;28;22054;-74
2021/07/07 03:03:26;;;;;;;2.90;1.30;;;19.70;99.90;;;;;;5025312;28;20468;-78
2021/07/07 03:05:57;;;;;;;2.27;1.20;;;19.70;1.00;;;;;;5025781;28;20445;-78
2021/07/07 03:08:28;;;;;;;1.53;1.37;;;19.70;99.90;;;;;;5026315;28;20962;-78
2021/07/07 03:10:57;;;;;;;2.70;1.17;;;19.70;40.80;;;;;;5026586;28;20488;-78
2021/07/07 03:13:26;;;;;;;6.53;1.50;;;19.70;99.90;;;;;;5022936;28;20479;-77
2021/07/07 03:15:55;;;;;;;1.40;1.30;;;19.60;99.90;;;;;;5019235;28;20462;-77
2021/07/07 03:18:23;;;;;;;1.20;1.10;;;19.50;99.90;;;;;;5025259;28;20551;-78
2021/07/07 03:20:53;;;;;;;1.20;1.10;;;19.60;99.90;;;;;;5024714;28;20468;-77
2021/07/07 03:23:24;;;;;;;1.23;1.13;;;19.60;1.00;;;;;;5026248;28;20468;-78
2021/07/07 03:25:53;;;;;;;1.90;0.90;;;19.50;1.00;;;;;;5022276;28;20444;-79
2021/07/07 03:28:24;;;;;;;1.10;1.00;;;19.60;1.00;;;;;;5024349;28;20834;-79
2021/07/07 03:30:52;;;;;;;0.90;0.90;;;19.60;1.00;;;;;;5024928;28;21050;-78
2021/07/07 03:33:21;;;;;;;1.33;1.23;;;19.60;1.00;;;;;;5023085;28;20525;-78
2021/07/07 03:35:49;;;;;;;1.03;0.93;;;19.60;99.90;;;;;;5026318;28;20449;-79
2021/07/07 03:38:17;;;;;;;1.40;1.30;;;19.60;46.80;;;;;;5025862;28;20507;-79
2021/07/07 03:40:47;;;;;;;1.00;0.90;;;19.60;99.90;;;;;;5026752;28;21229;-78
2021/07/07 03:43:15;;;;;;;1.53;1.40;;;19.60;99.90;;;;;;5026317;28;20526;-79
2021/07/07 03:45:43;;;;;;;2.80;1.30;;;19.50;99.90;;;;;;5024035;28;20457;-78
2021/07/07 03:48:11;;;;;;;1.63;1.20;;;19.50;1.00;;;;;;5029809;28;20506;-78
2021/07/07 03:50:41;;;;;;;1.43;1.00;;;19.50;99.90;;;;;;5028381;28;20965;-78
2021/07/07 03:53:09;;;;;;;2.07;1.10;;;19.50;34.40;;;;;;5026188;28;20999;-79
2021/07/07 03:55:38;;;;;;;1.37;0.90;;;19.50;99.90;;;;;;5025259;28;21076;-79
2021/07/07 03:58:07;;;;;;;1.10;1.00;;;19.40;99.90;;;;;;5029651;28;20502;-78
2021/07/07 04:00:35;;;;;;;1.10;1.00;;;19.40;99.90;;;;;;5026777;28;20453;-78
2021/07/07 04:03:04;;;;;;;2.70;1.20;;;19.40;99.90;;;;;;5045446;28;20507;-78
2021/07/07 04:05:32;;;;;;;1.00;1.00;;;19.40;99.90;;;;;;5027911;28;20498;-77
2021/07/07 04:08:00;;;;;;;1.30;1.20;;;19.40;99.90;;;;;;5054339;28;20992;-78
2021/07/07 04:10:28;;;;;;;1.10;0.90;;;19.40;99.90;;;;;;5030303;28;20486;-79
2021/07/07 04:12:56;;;;;;;1.93;1.30;;;19.30;1.00;;;;;;5017365;28;20483;-78
2021/07/07 04:15:26;;;;;;;2.40;1.20;;;19.40;99.90;;;;;;5026322;28;20453;-79
2021/07/07 04:17:54;;;;;;;1.20;1.10;;;19.40;99.90;;;;;;5028501;28;20975;-78
2021/07/07 04:20:23;;;;;;;3.30;1.10;;;19.40;99.90;;;;;;5029082;28;20471;-78
2021/07/07 04:22:52;;;;;;;0.90;0.90;;;19.40;37.70;;;;;;5028835;28;20479;-78
2021/07/07 04:25:20;;;;;;;1.23;1.13;;;19.40;37.70;;;;;;5031808;28;20460;-81
2021/07/07 04:27:48;;;;;;;3.33;1.10;;;19.40;1.00;;;;;;5033018;28;22291;-81
2021/07/07 04:30:19;;;;;;;1.17;1.00;;;19.40;37.50;;;;;;5027369;28;20490;-81
2021/07/07 04:32:49;;;;;;;0.90;0.90;;;19.40;99.90;;;;;;5022817;28;20896;-81
2021/07/07 04:35:19;;;;;;;1.20;1.10;;;19.40;1.00;;;;;;5027360;28;20568;-82
2021/07/07 04:37:49;;;;;;;1.10;0.90;;;19.40;99.90;;;;;;5026254;28;20583;-81
2021/07/07 04:40:20;;;;;;;3.70;1.10;;;19.40;99.90;;;;;;5026782;28;20973;-81
2021/07/07 04:42:49;;;;;;;1.10;1.00;;;19.40;36.30;;;;;;5028411;28;21265;-80
2021/07/07 04:45:18;;;;;;;1.10;1.00;;;19.40;99.90;;;;;;5027935;28;20522;-81
2021/07/07 04:47:46;;;;;;;1.10;1.00;;;19.40;99.90;;;;;;5031868;28;20464;-79
2021/07/07 04:50:18;;;;;;;2.00;1.10;;;19.40;1.00;;;;;;5029603;28;20514;-79
2021/07/07 04:52:46;;;;;;;1.20;1.00;;;19.40;1.00;;;;;;5026579;28;21001;-79
2021/07/07 04:55:16;;;;;;;1.87;1.10;;;19.40;99.90;;;;;;5024502;28;20572;-79
2021/07/07 04:57:44;;;;;;;1.90;1.10;;;19.30;38.10;;;;;;5019684;28;20467;-79
2021/07/07 05:00:16;;;;;;;2.27;1.20;;;19.40;99.90;;;;;;5026944;28;20455;-75
2021/07/07 05:02:45;;;;;;;1.20;1.10;;;19.40;1.00;;;;;;5028158;28;20867;-70
2021/07/07 05:05:16;;;;;;;1.53;1.20;;;19.30;1.00;;;;;;5027257;28;20869;-71
2021/07/07 05:07:45;;;;;;;1.50;1.10;;;19.10;1.00;;;;;;5028608;28;20467;-68
2021/07/07 05:10:15;;;;;;;0.93;0.93;;;19.10;46.70;;;;;;5024251;28;20541;-79
2021/07/07 05:12:44;;;;;;;1.27;0.97;;;19.10;99.90;;;;;;5027454;28;20491;-79
2021/07/07 05:15:13;;;;;;;1.43;1.10;;;19.20;99.90;;;;;;5021079;28;20455;-79
2021/07/07 05:17:44;;;;;;;2.40;1.30;;;19.20;1.00;;;;;;5029531;28;20514;-82
2021/07/07 05:20:13;;;;;;;3.47;1.17;;;19.20;99.90;;;;;;5023012;28;20877;-79
2021/07/07 05:22:43;;;;;;;1.80;1.10;;;19.30;99.90;;;;;;5025163;28;20523;-80
2021/07/07 05:25:13;;;;;;;1.20;0.90;;;19.30;1.00;;;;;;5024172;28;20492;-79
2021/07/07 05:27:41;;;;;;;2.20;1.10;;;19.40;99.90;;;;;;5027424;28;20507;-80
2021/07/07 05:30:14;;;;;;;2.30;0.90;;;19.40;99.90;;;;;;5028074;28;20453;-79
2021/07/07 05:32:42;;;;;;;1.57;1.20;;;19.40;86.80;;;;;;5028033;28;20538;-81
2021/07/07 05:35:11;;;;;;;1.93;0.90;;;19.50;99.90;;;;;;5029108;28;20463;-80
2021/07/07 05:37:46;;;;;;;2.60;1.00;;;19.40;1.00;;;;;;5028601;28;20487;-80
2021/07/07 05:40:16;;;;;;;2.70;1.40;;;19.50;1.00;;;;;;5028058;28;20550;-80
2021/07/07 05:42:49;;;;;;;1.20;1.10;;;19.50;99.90;;;;;;5028886;28;20456;-80
2021/07/07 05:45:18;;;;;;;2.47;1.40;;;19.50;1.00;;;;;;5027711;28;21022;-79
2021/07/07 05:47:46;;;;;;;1.80;1.17;;;19.50;1.00;;;;;;5027829;28;20444;-79
2021/07/07 05:50:15;;;;;;;1.30;1.10;;;19.40;99.90;;;;;;5029698;28;20470;-80
2021/07/07 05:52:45;;;;;;;3.83;1.20;;;19.30;99.90;;;;;;5028205;28;20468;-80
2021/07/07 05:55:14;;;;;;;1.70;1.23;;;19.40;1.00;;;;;;5027688;28;20468;-80
2021/07/07 05:57:42;;;;;;;1.40;1.30;;;19.50;1.00;;;;;;5029614;28;20518;-79
2021/07/07 06:00:13;;;;;;;1.30;1.20;;;19.50;40.10;;;;;;5018934;28;20542;-79
2021/07/07 06:02:44;;;;;;;2.13;1.10;;;19.40;1.00;;;;;;5017677;28;20471;-81
2021/07/07 06:05:13;;;;;;;1.07;0.97;;;19.40;1.00;;;;;;5029372;28;20455;-79
2021/07/07 06:07:41;;;;;;;1.40;1.30;;;19.50;38.30;;;;;;5022880;28;20448;-80
2021/07/07 06:10:13;;;;;;;1.30;1.03;;;19.50;1.00;;;;;;5027245;28;20464;-80
2021/07/07 06:12:41;;;;;;;4.23;1.20;;;19.40;99.90;;;;;;5025803;28;20484;-79
2021/07/07 06:15:11;;;;;;;0.90;0.90;;;19.50;99.90;;;;;;5024325;28;20530;-81
2021/07/07 06:17:40;;;;;;;1.97;1.10;;;19.50;99.90;;;;;;5024767;28;20948;-80
2021/07/07 06:20:11;;;;;;;1.80;1.07;;;19.50;34.80;;;;;;5027816;28;20983;-80
2021/07/07 06:22:40;;;;;;;1.33;0.90;;;19.40;1.00;;;;;;5028869;28;20854;-83
2021/07/07 06:25:11;;;;;;;1.00;0.90;;;19.40;1.00;;;;;;5028901;28;20456;-83
2021/07/07 06:27:40;;;;;;;1.53;1.00;;;19.40;1.00;;;;;;5022824;28;20463;-80
2021/07/07 06:30:11;;;;;;;2.80;1.10;;;19.40;99.90;;;;;;5030443;28;20514;-81
2021/07/07 06:32:39;;;;;;;1.10;1.00;;;19.40;99.90;;;;;;5026767;28;20474;-79
2021/07/07 06:35:08;;;;;;;2.10;0.90;;;19.40;99.90;;;;;;5030106;28;20456;-80
2021/07/07 06:37:36;;;;;;;1.97;1.10;;;19.40;99.90;;;;;;5025969;28;20479;-80
2021/07/07 06:40:04;;;;;;;2.53;1.07;;;19.40;99.90;;;;;;5027216;28;20528;-81
2021/07/07 06:42:34;;;;;;;1.33;1.00;;;19.40;55.00;;;;;;5025299;28;20460;-81
2021/07/07 06:45:05;;;;;;;2.57;1.67;;;19.40;10.50;;;;;;5026961;28;20952;-82
2021/07/07 06:47:33;;;;;;;1.87;0.90;;;19.40;99.90;;;;;;5026544;28;20514;-80
2021/07/07 06:50:01;;;;;;;2.10;1.10;;;19.40;99.90;;;;;;5030495;28;20452;-81
2021/07/07 06:52:29;;;;;;;1.83;1.07;;;19.40;99.90;;;;;;5025953;28;20815;-80
2021/07/07 06:54:58;;;;;;;1.27;0.80;;;19.40;1.00;;;;;;5029156;28;20468;-81
2021/07/07 06:57:26;;;;;;;4.47;1.20;;;19.40;1.00;;;;;;5027548;28;20475;-80
2021/07/07 06:59:55;;;;;;;1.70;1.13;;;19.20;1.00;;;;;;5027215;28;20870;-79
2021/07/07 07:02:23;;;;;;;1.10;1.00;;;19.30;1.00;;;;;;5028493;28;21064;-81
2021/07/07 07:04:51;;;;;;;2.30;1.10;;;19.30;99.90;;;;;;5027892;28;20510;-78
2021/07/07 07:07:20;;;;;;;1.17;1.00;;;19.30;99.90;;;;;;5027178;28;20444;-81
2021/07/07 07:09:48;;;;;;;2.23;1.10;;;19.20;99.90;;;;;;5029493;28;20856;-80
2021/07/07 07:12:16;;;;;;;1.97;1.30;;;19.20;99.90;;;;;;5027061;28;21024;-79
2021/07/07 07:14:44;;;;;;;2.70;1.00;;;19.10;99.90;;;;;;5027879;28;20490;-82
2021/07/07 07:17:13;;;;;;;1.60;1.27;;;19.00;99.90;;;;;;5024819;28;20998;-82
2021/07/07 07:19:41;;;;;;;1.47;1.00;;;19.10;99.90;;;;;;5030047;28;20456;-81
2021/07/07 07:22:09;;;;;;;1.33;1.07;;;19.10;1.00;;;;;;5030927;28;20460;-83
2021/07/07 07:24:38;;;;;;;1.73;1.20;;;19.10;99.90;;;;;;5033113;28;20983;-81
2021/07/07 07:27:06;;;;;;;1.53;1.03;;;19.10;99.90;;;;;;5032034;28;20455;-81
2021/07/07 07:29:34;;;;;;;2.30;1.47;;;19.10;1.00;;;;;;5032921;28;20514;-80
2021/07/07 07:32:03;;;;;;;1.80;1.13;;;19.20;47.20;;;;;;5031383;28;20457;-81
2021/07/07 07:34:32;;;;;;;1.77;1.20;;;19.20;1.00;;;;;;5029922;28;20475;-79
2021/07/07 07:37:02;;;;;;;1.77;0.90;;;19.20;99.90;;;;;;5030462;28;20510;-81
2021/07/07 07:39:40;;;;;;;1.80;1.10;;;19.30;99.90;;;;;;5032299;28;20456;-83
2021/07/07 07:42:12;;;;;;;1.17;1.00;;;19.30;1.00;;;;;;5030798;28;20460;-81
2021/07/07 07:44:40;;;;;;;0.77;0.77;;;19.30;1.00;;;;;;5026573;28;20475;-82
2021/07/07 07:47:09;;;;;;;1.63;1.20;;;19.40;99.90;;;;;;5031268;28;20464;-83
2021/07/07 07:49:58;;;;;;;2.30;1.13;;;19.40;93.80;;;;;;5023876;28;20882;-81
2021/07/07 07:52:26;;;;;;;1.90;1.20;;;19.50;1.00;;;;;;5031806;28;20443;-81
2021/07/07 07:54:54;;;;;;;3.57;1.10;;;19.50;1.00;;;;;;5031239;28;20484;-84
2021/07/07 07:57:23;;;;;;;1.47;1.10;;;19.50;1.00;;;;;;5030849;28;20819;-83
2021/07/07 07:59:51;;;;;;;3.67;1.10;;;19.50;99.90;;;;;;5031329;28;20440;-81
2021/07/07 08:02:19;;;;;;;1.60;1.10;;;19.40;99.90;;;;;;5025540;28;20463;-82
2021/07/07 08:04:48;;;;;;;1.40;1.30;;;19.40;1.00;;;;;;5030941;28;20499;-81
2021/07/07 08:07:18;;;;;;;1.70;1.13;;;19.40;99.90;;;;;;5031321;28;20482;-81
2021/07/07 08:09:46;;;;;;;1.43;1.10;;;19.30;1.00;;;;;;5029017;28;20462;-81
2021/07/07 08:12:15;;;;;;;1.30;1.20;;;19.30;1.00;;;;;;5029721;28;20460;-80
2021/07/07 08:14:43;;;;;;;1.47;0.90;;;19.30;71.60;;;;;;5028695;28;20891;-80
2021/07/07 08:17:11;;;;;;;0.87;0.87;;;19.30;1.00;;;;;;5024730;28;20448;-82
2021/07/07 08:19:40;;;;;;;0.90;0.90;;;19.30;1.00;;;;;;5031799;28;20456;-82
2021/07/07 08:22:08;;;;;;;4.27;1.17;;;19.20;1.00;;;;;;5029901;28;20455;-81
2021/07/07 08:24:37;;;;;;;1.00;0.80;;;19.20;99.90;;;;;;5030802;28;20841;-81
2021/07/07 08:27:08;;;;;;;2.00;1.10;;;19.10;99.90;;;;;;5031921;28;20506;-81
2021/07/07 08:29:37;;;;;;;1.87;1.00;;;19.10;37.50;;;;;;5029847;28;20958;-83
2021/07/07 08:32:06;;;;;;;1.27;1.17;;;19.20;60.80;;;;;;5032320;28;20452;-81
2021/07/07 08:34:34;;;;;;;1.87;1.77;;;19.30;1.00;;;;;;5026716;28;20841;-81
2021/07/07 08:37:03;;;;;;;1.93;1.10;;;19.40;1.00;;;;;;5028962;28;20460;-81
2021/07/07 08:39:32;;;;;;;1.30;1.20;;;19.40;99.90;;;;;;5021276;28;20470;-81
2021/07/07 08:42:01;;;;;;;1.23;1.07;;;19.40;1.00;;;;;;5030629;28;20456;-82
2021/07/07 08:44:30;;;;;;;1.73;1.20;;;19.50;99.90;;;;;;5030944;28;20518;-80
2021/07/07 08:46:58;;;;;;;1.30;1.00;;;19.50;1.00;;;;;;5028192;28;20566;-80
2021/07/07 08:49:26;;;;;;;1.57;1.17;;;19.40;99.90;;;;;;5030460;28;20531;-84
2021/07/07 08:51:54;;;;;;;1.10;0.97;;;19.40;1.00;;;;;;5027149;28;20543;-80
2021/07/07 08:54:22;;;;;;;2.13;1.60;;;19.40;1.00;;;;;;5030635;28;20814;-81
2021/07/07 08:56:50;;;;;;;1.20;1.20;;;19.40;99.90;;;;;;5027744;28;20482;-82
2021/07/07 08:59:21;;;;;;;1.13;1.00;;;19.50;99.90;;;;;;5030235;28;20460;-80
2021/07/07 09:02:04;;;;;;;2.70;1.20;;;19.60;1.00;;;;;;5029078;28;20460;-77
2021/07/07 09:04:34;;;;;;;1.53;1.23;;;19.70;1.00;;;;;;5026048;28;20472;-81
2021/07/07 09:07:04;;;;;;;1.80;1.07;;;19.70;1.00;;;;;;5016841;28;20473;-81
2021/07/07 09:09:37;;;;;;;0.90;0.90;;;19.70;1.00;;;;;;5024903;28;20739;-80
2021/07/07 09:12:18;;;;;;;1.63;1.10;;;19.70;99.90;;;;;;5029328;28;20464;-79
2021/07/07 09:14:51;;;;;;;1.07;1.07;;;19.60;1.00;;;;;;5028462;28;20473;-79
2021/07/07 09:17:21;;;;;;;1.77;1.03;;;19.50;99.90;;;;;;5027564;28;20991;-80
2021/07/07 09:19:50;;;;;;;0.80;0.80;;;19.50;1.00;;;;;;5028545;28;20459;-80
2021/07/07 09:22:27;;;;;;;1.40;1.20;;;19.60;1.00;;;;;;5027095;28;20449;-81
2021/07/07 09:25:01;;;;;;;3.03;2.60;;;19.60;1.00;;;;;;5030541;28;20534;-79
2021/07/07 09:27:35;;;;;;;1.30;1.10;;;19.70;1.00;;;;;;5027338;28;20448;-81
2021/07/07 09:30:08;;;;;;;1.20;1.10;;;19.70;99.90;;;;;;5027827;28;20546;-82
2021/07/07 09:32:46;;;;;;;1.00;0.90;;;19.70;1.00;;;;;;5028539;28;20495;-80
2021/07/07 09:35:18;;;;;;;2.10;0.80;;;19.70;99.90;;;;;;5024934;28;20862;-81
2021/07/07 09:37:51;;;;;;;1.10;0.80;;;19.80;1.00;;;;;;5027976;28;20935;-79
2021/07/07 09:40:20;;;;;;;0.97;0.93;;;19.70;99.90;;;;;;5025923;28;20469;-82
2021/07/07 09:42:49;;;;;;;2.00;0.90;;;19.50;54.80;;;;;;5027742;28;20519;-82
2021/07/07 09:45:22;;;;;;;0.90;0.90;;;19.60;99.90;;;;;;5029765;28;20538;-83
2021/07/07 09:47:51;;;;;;;1.00;0.90;;;19.70;99.90;;;;;;5027202;28;20457;-80
2021/07/07 09:50:20;;;;;;;0.90;0.90;;;19.60;1.00;;;;;;5032014;28;20452;-78
2021/07/07 09:52:48;;;;;;;3.73;0.93;;;19.50;99.90;;;;;;5028584;28;20451;-81
2021/07/07 09:55:17;;;;;;;1.00;0.90;;;19.50;52.10;;;;;;5031783;28;20491;-79
2021/07/07 09:57:46;;;;;;;2.20;1.67;;;19.60;1.00;;;;;;5027566;28;20476;-79
2021/07/07 10:00:16;;;;;;;1.43;1.10;;;19.60;99.90;;;;;;5031182;28;21093;-79
2021/07/07 10:02:49;;;;;;;2.00;0.83;;;19.50;99.90;;;;;;5026805;28;20933;-81
2021/07/07 10:05:20;;;;;;;1.10;1.00;;;19.50;1.00;;;;;;5030124;28;20453;-80
2021/07/07 10:07:49;;;;;;;2.33;0.90;;;19.50;1.00;;;;;;5032598;28;20946;-79
2021/07/07 10:10:20;;;;;;;0.97;0.93;;;19.60;92.60;;;;;;5032072;28;21138;-79
2021/07/07 10:12:49;;;;;;;0.87;0.87;;;19.60;99.90;;;;;;5027257;28;20464;-79
2021/07/07 10:15:18;;;;;;;1.00;0.90;;;19.70;99.90;;;;;;5027587;28;21372;-80
2021/07/07 10:17:48;;;;;;;1.00;0.90;;;19.70;5.70;;;;;;5028717;28;20885;-79
2021/07/07 10:20:16;;;;;;;2.27;1.00;;;19.70;1.00;;;;;;5031138;28;20506;-80
2021/07/07 10:22:49;;;;;;;0.80;0.80;;;19.60;1.00;;;;;;5031191;28;20498;-82
2021/07/07 10:25:22;;;;;;;0.80;0.80;;;19.70;1.00;;;;;;5029546;28;20974;-80
2021/07/07 10:27:51;;;;;;;0.93;0.93;;;19.70;1.00;;;;;;5028938;28;20510;-79
2021/07/07 10:30:22;;;;;;;1.20;1.10;;;19.80;1.00;;;;;;5030236;28;20866;-80
2021/07/07 10:33:11;;;;;;;0.70;0.70;;;19.70;1.00;;;;;;5028192;28;20448;-79
2021/07/07 10:35:40;;;;;;;1.23;1.13;;;19.70;99.90;;;;;;5021774;28;20517;-81
2021/07/07 10:38:09;;;;;;;0.80;0.80;;;19.70;99.90;;;;;;5030687;28;20452;-81
2021/07/07 10:40:39;;;;;;;1.33;0.90;;;19.70;99.90;;;;;;5029941;28;20538;-80
2021/07/07 10:43:08;;;;;;;1.17;0.90;;;19.70;1.00;;;;;;5031288;28;20472;-80
2021/07/07 10:45:38;;;;;;;0.90;0.90;;;19.60;99.90;;;;;;5029040;28;20451;-80
2021/07/07 10:48:31;;;;;;;1.03;0.93;;;19.70;1.00;;;;;;5038922;28;20720;-80
2021/07/07 10:51:00;;;;;;;0.90;0.90;;;19.80;1.00;;;;;;5029790;28;21128;-80
2021/07/07 10:53:31;;;;;;;2.17;1.00;;;19.90;85.00;;;;;;5029916;28;20487;-80
2021/07/07 10:56:00;;;;;;;1.03;1.00;;;19.90;99.90;;;;;;5032255;28;20484;-78
2021/07/07 10:58:34;;;;;;;0.90;0.90;;;19.90;1.00;;;;;;5034940;28;20448;-80
2021/07/07 11:01:03;;;;;;;0.83;0.83;;;19.90;99.90;;;;;;5020805;28;20928;-82
2021/07/07 11:03:37;;;;;;;0.90;0.90;;;19.90;1.00;;;;;;5032759;28;20479;-79
2021/07/07 11:06:31;;;;;;;1.00;0.90;;;20.10;99.90;;;;;;5031810;28;20456;-78
2021/07/07 11:09:13;;;;;;;1.50;1.13;;;20.00;99.90;;;;;;5028344;28;20461;-81
2021/07/07 11:11:44;;;;;;;2.33;1.00;;;20.10;1.00;;;;;;5034058;28;20522;-79
2021/07/07 11:14:19;;;;;;;1.07;1.00;;;20.10;1.00;;;;;;5030856;28;20487;-78
2021/07/07 11:16:54;;;;;;;1.23;0.80;;;20.10;1.00;;;;;;5030366;28;20523;-79
2021/07/07 11:19:44;;;;;;;0.90;0.90;;;20.20;1.00;;;;;;5033229;28;20570;-80
2021/07/07 11:22:14;;;;;;;2.50;0.90;;;20.30;99.90;;;;;;5032440;28;20459;-80
2021/07/07 11:24:47;;;;;;;2.40;1.00;;;20.30;99.90;;;;;;5022308;28;20460;-77
2021/07/07 11:27:15;;;;;;;1.20;1.00;;;20.40;99.90;;;;;;5023735;28;20506;-81
2021/07/07 11:29:44;;;;;;;1.77;1.00;;;20.40;85.90;;;;;;5048750;28;20582;-80
2021/07/07 11:32:35;;;;;;;0.93;0.90;;;20.50;1.00;;;;;;5031245;28;20497;-80
2021/07/07 11:35:08;;;;;;;1.20;0.83;;;20.50;1.00;;;;;;5031565;28;21043;-80
2021/07/07 11:37:37;;;;;;;1.57;0.90;;;20.60;1.00;;;;;;5033247;28;20462;-79
2021/07/07 11:40:23;;;;;;;0.70;0.70;;;20.60;1.00;;;;;;5032605;28;20460;-79
2021/07/07 11:43:00;;;;;;;1.50;1.00;;;20.60;1.00;;;;;;5027776;28;20581;-79
2021/07/07 11:45:32;;;;;;;1.17;1.03;;;20.60;1.00;;;;;;5032347;28;20463;-80
2021/07/07 11:48:07;;;;;;;0.90;0.90;;;20.70;1.00;;;;;;5029893;28;21100;-81
2021/07/07 11:50:39;;;;;;;2.47;0.93;;;20.70;1.00;;;;;;5033263;28;20458;-80
2021/07/07 11:53:09;;;;;;;0.90;0.83;;;20.70;1.00;;;;;;5023401;28;20487;-79
2021/07/07 11:55:56;;;;;;;2.13;0.80;;;20.80;1.00;;;;;;5032878;28;20452;-79
2021/07/07 11:58:26;;;;;;;0.90;0.80;;;20.80;99.90;;;;;;5023954;28;20463;-80
2021/07/07 12:00:57;;;;;;;1.27;0.80;;;20.80;99.90;;;;;;5032889;28;20448;-79
2021/07/07 12:03:26;;;;;;;1.93;0.80;;;20.70;99.90;;;;;;5032726;28;20894;-78
2021/07/07 12:06:02;;;;;;;2.93;0.80;;;20.70;99.90;;;;;;5029391;28;20460;-78
2021/07/07 12:08:33;;;;;;;0.83;0.83;;;20.80;1.00;;;;;;5030257;28;20496;-81
2021/07/07 12:11:08;;;;;;;1.27;1.00;;;20.90;1.00;;;;;;5030021;28;20456;-80
2021/07/07 12:13:38;;;;;;;1.43;0.90;;;21.00;99.90;;;;;;5032073;28;20481;-80
2021/07/07 12:16:32;;;;;;;0.90;0.90;;;21.00;1.00;;;;;;5023734;28;20473;-79
2021/07/07 12:19:03;;;;;;;1.17;1.10;;;20.90;1.00;;;;;;5030420;28;20464;-79
2021/07/07 12:21:45;;;;;;;1.50;0.80;;;20.90;1.00;;;;;;5032320;28;20456;-79
2021/07/07 12:24:17;;;;;;;1.27;0.90;;;20.90;1.00;;;;;;5033826;28;20491;-80
2021/07/07 12:26:46;;;;;;;1.43;0.80;;;20.90;1.00;;;;;;5031652;28;20592;-78
2021/07/07 12:29:17;;;;;;;1.60;0.90;;;20.90;1.00;;;;;;5030957;28;20817;-78
2021/07/07 12:31:47;;;;;;;1.50;0.83;;;20.90;1.00;;;;;;5029449;28;20448;-80
2021/07/07 12:34:18;;;;;;;0.70;0.70;;;20.90;1.00;;;;;;5029495;28;20533;-82
2021/07/07 12:36:53;;;;;;;0.90;0.90;;;20.90;99.90;;;;;;5023668;28;20469;-80
2021/07/07 12:39:23;;;;;;;0.80;0.80;;;21.00;99.90;;;;;;5026542;28;20467;-78
2021/07/07 12:41:58;;;;;;;1.27;0.90;;;21.00;1.00;;;;;;5025701;28;20539;-80
2021/07/07 12:44:29;;;;;;;0.80;0.80;;;21.00;1.00;;;;;;5029351;28;20478;-80
2021/07/07 12:47:00;;;;;;;1.03;0.80;;;21.00;1.00;;;;;;5025138;28;20458;-80
2021/07/07 12:49:46;;;;;;;1.00;0.70;;;21.10;99.90;;;;;;5031673;28;20463;-80
2021/07/07 12:52:31;;;;;;;1.10;0.90;;;21.10;1.00;;;;;;5024167;28;20464;-80
2021/07/07 12:55:01;;;;;;;1.10;1.00;;;21.10;99.90;;;;;;5029250;28;20539;-84
2021/07/07 12:57:47;;;;;;;0.80;0.80;;;21.20;99.90;;;;;;5028980;28;20488;-80
2021/07/07 13:00:18;;;;;;;1.20;0.90;;;21.30;1.00;;;;;;5030339;28;20464;-80
2021/07/07 13:02:55;;;;;;;0.70;0.70;;;21.20;99.90;;;;;;5025935;28;20948;-81
2021/07/07 13:05:32;;;;;;;0.83;0.80;;;21.20;1.00;;;;;;5028916;28;20458;-81